createdAt,value
2023-05-18T00:10:28.842Z,9.21
2023-05-18T00:22:29.222Z,9.17
2023-05-18T00:34:29.691Z,9.24
2023-05-18T00:46:30.331Z,9.15
2023-05-18T00:58:30.552Z,9.13
2023-05-18T01:10:31.072Z,9.16
2023-05-18T01:22:31.460Z,9.03
2023-05-18T01:34:31.941Z,8.90
2023-05-18T01:46:32.475Z,8.86
2023-05-18T01:58:32.889Z,8.96
2023-05-18T02:10:33.278Z,8.99
2023-05-18T02:22:33.699Z,8.90
2023-05-18T02:34:34.152Z,8.87
2023-05-18T02:46:34.598Z,8.80
2023-05-18T02:58:35.054Z,8.64
2023-05-18T03:10:35.572Z,8.99
2023-05-18T03:22:36.042Z,9.01
2023-05-18T03:34:36.441Z,9.01
2023-05-18T03:46:36.916Z,8.99
2023-05-18T03:58:37.341Z,8.94
2023-05-18T04:10:37.811Z,8.90
2023-05-18T04:22:38.267Z,8.93
2023-05-18T04:34:38.733Z,8.91
2023-05-18T04:46:39.169Z,8.93
2023-05-18T04:58:39.585Z,9.04
2023-05-18T05:10:40.085Z,9.18
2023-05-18T05:22:40.551Z,9.16
2023-05-18T05:34:40.950Z,9.24
2023-05-18T05:46:41.459Z,9.28
2023-05-18T05:58:41.861Z,9.44
2023-05-18T06:10:42.315Z,9.46
2023-05-18T06:22:42.736Z,9.71
2023-05-18T06:34:43.437Z,9.73
2023-05-18T06:46:43.689Z,9.74
2023-05-18T06:58:44.092Z,10.12
2023-05-18T07:10:44.559Z,9.95
2023-05-18T07:22:45.072Z,9.99
2023-05-18T07:34:45.502Z,10.19
2023-05-18T07:46:46.027Z,10.29
2023-05-18T07:58:46.399Z,10.21
2023-05-18T08:10:46.848Z,10.12
2023-05-18T08:22:47.312Z,10.06
2023-05-18T08:34:47.736Z,10.04
2023-05-18T08:46:48.173Z,10.51
2023-05-18T08:58:48.608Z,10.21
2023-05-18T09:10:49.116Z,10.22
2023-05-18T09:22:49.556Z,10.32
2023-05-18T09:34:50.029Z,10.81
2023-05-18T09:46:50.513Z,10.61
2023-05-18T09:58:50.927Z,10.57
2023-05-18T10:10:51.385Z,10.82
2023-05-18T10:22:51.858Z,10.64
2023-05-18T10:34:52.269Z,10.79
2023-05-18T10:46:52.822Z,10.56
2023-05-18T10:58:53.154Z,10.83
2023-05-18T11:10:53.610Z,11.47
2023-05-18T11:22:54.154Z,11.26
2023-05-18T11:34:54.559Z,11.50
2023-05-18T11:46:54.985Z,11.27
2023-05-18T11:58:55.444Z,11.38
2023-05-18T12:10:55.894Z,11.03
2023-05-18T12:22:56.388Z,10.66
2023-05-18T12:34:56.798Z,10.64
2023-05-18T12:46:57.281Z,10.84
2023-05-18T12:58:57.730Z,10.59
2023-05-18T13:11:11.943Z,10.75
2023-05-18T13:22:58.606Z,10.90
2023-05-18T13:34:59.081Z,11.07
2023-05-18T13:46:59.507Z,11.20
2023-05-18T13:58:59.980Z,11.20
2023-05-18T14:11:00.435Z,11.24
2023-05-18T14:23:00.905Z,11.16
2023-05-18T14:35:01.335Z,11.57
2023-05-18T14:47:02.023Z,11.80
2023-05-18T14:59:02.225Z,11.81
2023-05-18T15:11:02.699Z,11.65
2023-05-18T15:23:03.109Z,12.04
2023-05-18T15:35:03.632Z,11.82
2023-05-18T15:47:04.047Z,11.83
2023-05-18T15:59:04.515Z,11.93
2023-05-18T16:11:04.967Z,11.50
2023-05-18T16:23:05.417Z,11.48
2023-05-18T16:35:05.853Z,11.32
2023-05-18T16:47:06.319Z,11.24
2023-05-18T16:59:06.784Z,11.20
2023-05-18T17:11:07.296Z,11.21
2023-05-18T17:23:07.681Z,11.23
2023-05-18T17:35:08.130Z,11.10
2023-05-18T17:47:08.729Z,11.01
2023-05-18T17:59:09.083Z,10.88
2023-05-18T18:11:09.541Z,10.82
2023-05-18T18:23:09.950Z,10.85
2023-05-18T18:35:10.422Z,10.74
2023-05-18T18:47:10.857Z,10.63
2023-05-18T18:59:11.328Z,10.46
2023-05-18T19:11:11.787Z,10.45
2023-05-18T19:23:12.249Z,10.42
2023-05-18T19:35:12.701Z,10.42
2023-05-18T19:47:13.156Z,10.38
2023-05-18T19:59:13.591Z,10.35
2023-05-18T20:11:14.019Z,10.26
2023-05-18T20:23:14.516Z,10.09
2023-05-18T20:35:14.903Z,9.95
2023-05-18T20:47:15.387Z,10.10
2023-05-18T20:59:15.833Z,10.00
2023-05-18T21:11:16.298Z,9.89
2023-05-18T21:23:16.737Z,9.73
2023-05-18T21:35:17.199Z,9.92
2023-05-18T21:47:17.664Z,9.80
2023-05-18T21:59:18.158Z,9.85
2023-05-18T22:11:18.531Z,9.80
2023-05-18T22:23:19.024Z,9.66
2023-05-18T22:35:19.448Z,9.68
2023-05-18T22:47:20.129Z,9.57
2023-05-18T22:59:20.333Z,9.49
2023-05-18T23:11:20.833Z,9.68
2023-05-18T23:23:21.265Z,9.60
2023-05-18T23:35:21.754Z,9.39
2023-05-18T23:47:22.205Z,9.33
2023-05-18T23:59:22.679Z,9.44
